sensor_id;sensor_type;location;lat;lon;timestamp;P1;durP1;ratioP1;P2;durP2;ratioP2
35715;SDS011;21840;44.920;8.616;2023-03-14T00:00:22;38.55;;;20.27;;
35715;SDS011;21840;44.920;8.616;2023-03-14T00:02:56;33.53;;;19.75;;
35715;SDS011;21840;44.920;8.616;2023-03-14T00:05:22;37.33;;;19.05;;
35715;SDS011;21840;44.920;8.616;2023-03-14T00:07:47;31.13;;;19.70;;
35715;SDS011;21840;44.920;8.616;2023-03-14T00:10:13;33.15;;;18.92;;
35715;SDS011;21840;44.920;8.616;2023-03-14T00:12:40;33.70;;;19.65;;
35715;SDS011;21840;44.920;8.616;2023-03-14T00:15:07;33.28;;;19.25;;
35715;SDS011;21840;44.920;8.616;2023-03-14T00:17:33;32.20;;;18.98;;
35715;SDS011;21840;44.920;8.616;2023-03-14T00:19:59;32.40;;;20.10;;
35715;SDS011;21840;44.920;8.616;2023-03-14T00:22:30;33.17;;;19.40;;
35715;SDS011;21840;44.920;8.616;2023-03-14T00:24:56;33.20;;;18.25;;
35715;SDS011;21840;44.920;8.616;2023-03-14T00:27:22;42.33;;;20.45;;
35715;SDS011;21840;44.920;8.616;2023-03-14T00:29:47;30.20;;;19.65;;
35715;SDS011;21840;44.920;8.616;2023-03-14T00:32:13;34.90;;;19.88;;
35715;SDS011;21840;44.920;8.616;2023-03-14T00:34:38;33.50;;;19.45;;
35715;SDS011;21840;44.920;8.616;2023-03-14T00:37:05;33.22;;;21.33;;
35715;SDS011;21840;44.920;8.616;2023-03-14T00:39:30;33.72;;;20.48;;
35715;SDS011;21840;44.920;8.616;2023-03-14T00:41:56;36.22;;;21.00;;
35715;SDS011;21840;44.920;8.616;2023-03-14T00:44:21;37.42;;;21.73;;
35715;SDS011;21840;44.920;8.616;2023-03-14T00:46:47;34.53;;;21.75;;
35715;SDS011;21840;44.920;8.616;2023-03-14T00:49:12;28.42;;;19.90;;
35715;SDS011;21840;44.920;8.616;2023-03-14T00:51:38;37.55;;;21.38;;
35715;SDS011;21840;44.920;8.616;2023-03-14T00:54:03;40.15;;;21.70;;
35715;SDS011;21840;44.920;8.616;2023-03-14T00:56:29;38.78;;;22.48;;
35715;SDS011;21840;44.920;8.616;2023-03-14T00:58:55;34.58;;;21.77;;
35715;SDS011;21840;44.920;8.616;2023-03-14T01:01:22;38.03;;;20.77;;
35715;SDS011;21840;44.920;8.616;2023-03-14T01:03:50;34.58;;;22.27;;
35715;SDS011;21840;44.920;8.616;2023-03-14T01:06:18;40.83;;;21.85;;
35715;SDS011;21840;44.920;8.616;2023-03-14T01:08:54;37.03;;;21.85;;
35715;SDS011;21840;44.920;8.616;2023-03-14T01:11:21;36.28;;;21.92;;
35715;SDS011;21840;44.920;8.616;2023-03-14T01:13:51;32.93;;;21.60;;
35715;SDS011;21840;44.920;8.616;2023-03-14T01:16:18;34.72;;;21.95;;
35715;SDS011;21840;44.920;8.616;2023-03-14T01:18:45;31.67;;;21.77;;
35715;SDS011;21840;44.920;8.616;2023-03-14T01:21:15;34.83;;;23.02;;
35715;SDS011;21840;44.920;8.616;2023-03-14T01:23:45;35.00;;;21.75;;
35715;SDS011;21840;44.920;8.616;2023-03-14T01:26:12;34.83;;;22.05;;
35715;SDS011;21840;44.920;8.616;2023-03-14T01:28:39;34.20;;;22.15;;
35715;SDS011;21840;44.920;8.616;2023-03-14T01:31:05;34.28;;;22.15;;
35715;SDS011;21840;44.920;8.616;2023-03-14T01:33:32;33.03;;;22.38;;
35715;SDS011;21840;44.920;8.616;2023-03-14T01:35:58;34.90;;;22.45;;
35715;SDS011;21840;44.920;8.616;2023-03-14T01:38:24;33.75;;;22.33;;
35715;SDS011;21840;44.920;8.616;2023-03-14T01:40:50;38.15;;;21.10;;
35715;SDS011;21840;44.920;8.616;2023-03-14T01:43:16;34.10;;;21.95;;
35715;SDS011;21840;44.920;8.616;2023-03-14T01:48:36;39.88;;;21.40;;
35715;SDS011;21840;44.920;8.616;2023-03-14T01:51:07;35.58;;;19.38;;
35715;SDS011;21840;44.920;8.616;2023-03-14T01:53:38;28.98;;;16.27;;
35715;SDS011;21840;44.920;8.616;2023-03-14T01:56:05;30.95;;;15.18;;
35715;SDS011;21840;44.920;8.616;2023-03-14T01:58:31;28.10;;;13.68;;
35715;SDS011;21840;44.920;8.616;2023-03-14T02:00:59;32.47;;;15.52;;
35715;SDS011;21840;44.920;8.616;2023-03-14T02:03:27;33.53;;;21.90;;
35715;SDS011;21840;44.920;8.616;2023-03-14T02:05:56;37.10;;;23.90;;
35715;SDS011;21840;44.920;8.616;2023-03-14T02:08:28;38.17;;;23.52;;
35715;SDS011;21840;44.920;8.616;2023-03-14T02:10:59;42.25;;;23.60;;
35715;SDS011;21840;44.920;8.616;2023-03-14T02:13:43;38.58;;;23.27;;
35715;SDS011;21840;44.920;8.616;2023-03-14T02:16:15;35.72;;;23.98;;
35715;SDS011;21840;44.920;8.616;2023-03-14T02:19:13;34.47;;;21.60;;
35715;SDS011;21840;44.920;8.616;2023-03-14T02:22:06;36.30;;;23.60;;
35715;SDS011;21840;44.920;8.616;2023-03-14T02:27:46;37.67;;;23.45;;
35715;SDS011;21840;44.920;8.616;2023-03-14T02:30:14;38.28;;;24.10;;
35715;SDS011;21840;44.920;8.616;2023-03-14T02:32:44;44.53;;;24.45;;
35715;SDS011;21840;44.920;8.616;2023-03-14T02:35:14;39.25;;;25.02;;
35715;SDS011;21840;44.920;8.616;2023-03-14T02:37:48;38.28;;;26.02;;
35715;SDS011;21840;44.920;8.616;2023-03-14T02:40:19;37.65;;;25.02;;
35715;SDS011;21840;44.920;8.616;2023-03-14T02:42:46;40.50;;;26.45;;
35715;SDS011;21840;44.920;8.616;2023-03-14T02:47:44;39.05;;;26.70;;
35715;SDS011;21840;44.920;8.616;2023-03-14T02:50:15;33.22;;;24.02;;
35715;SDS011;21840;44.920;8.616;2023-03-14T02:52:45;37.95;;;23.48;;
35715;SDS011;21840;44.920;8.616;2023-03-14T02:55:11;32.85;;;23.10;;
35715;SDS011;21840;44.920;8.616;2023-03-14T02:57:39;34.80;;;24.45;;
35715;SDS011;21840;44.920;8.616;2023-03-14T03:00:05;31.58;;;23.77;;
35715;SDS011;21840;44.920;8.616;2023-03-14T03:02:35;31.92;;;22.90;;
35715;SDS011;21840;44.920;8.616;2023-03-14T03:05:00;31.48;;;23.02;;
35715;SDS011;21840;44.920;8.616;2023-03-14T03:07:26;26.10;;;20.33;;
35715;SDS011;21840;44.920;8.616;2023-03-14T03:09:54;26.42;;;19.60;;
35715;SDS011;21840;44.920;8.616;2023-03-14T03:12:19;25.52;;;19.00;;
35715;SDS011;21840;44.920;8.616;2023-03-14T03:14:45;29.73;;;20.48;;
35715;SDS011;21840;44.920;8.616;2023-03-14T03:17:10;25.27;;;18.30;;
35715;SDS011;21840;44.920;8.616;2023-03-14T03:19:37;18.83;;;13.35;;
35715;SDS011;21840;44.920;8.616;2023-03-14T03:22:02;16.33;;;13.45;;
35715;SDS011;21840;44.920;8.616;2023-03-14T03:24:28;17.33;;;13.18;;
35715;SDS011;21840;44.920;8.616;2023-03-14T03:26:53;18.13;;;13.38;;
35715;SDS011;21840;44.920;8.616;2023-03-14T03:29:19;18.40;;;12.40;;
35715;SDS011;21840;44.920;8.616;2023-03-14T03:31:45;17.20;;;13.27;;
35715;SDS011;21840;44.920;8.616;2023-03-14T03:34:12;17.33;;;12.75;;
35715;SDS011;21840;44.920;8.616;2023-03-14T03:36:38;17.10;;;12.15;;
35715;SDS011;21840;44.920;8.616;2023-03-14T03:39:06;18.13;;;13.00;;
35715;SDS011;21840;44.920;8.616;2023-03-14T03:41:31;22.23;;;14.50;;
35715;SDS011;21840;44.920;8.616;2023-03-14T03:43:57;33.67;;;11.57;;
35715;SDS011;21840;44.920;8.616;2023-03-14T03:46:23;13.50;;;9.27;;
35715;SDS011;21840;44.920;8.616;2023-03-14T03:48:59;16.15;;;8.70;;
35715;SDS011;21840;44.920;8.616;2023-03-14T03:51:26;10.68;;;6.80;;
35715;SDS011;21840;44.920;8.616;2023-03-14T03:53:52;10.23;;;6.85;;
35715;SDS011;21840;44.920;8.616;2023-03-14T03:56:24;9.35;;;6.15;;
35715;SDS011;21840;44.920;8.616;2023-03-14T03:58:50;9.50;;;6.93;;
35715;SDS011;21840;44.920;8.616;2023-03-14T04:01:15;8.13;;;6.28;;
35715;SDS011;21840;44.920;8.616;2023-03-14T04:03:45;9.20;;;6.10;;
35715;SDS011;21840;44.920;8.616;2023-03-14T04:06:11;11.23;;;6.50;;
35715;SDS011;21840;44.920;8.616;2023-03-14T04:08:38;9.73;;;5.90;;
35715;SDS011;21840;44.920;8.616;2023-03-14T04:11:07;9.07;;;6.32;;
35715;SDS011;21840;44.920;8.616;2023-03-14T04:13:57;8.90;;;6.53;;
35715;SDS011;21840;44.920;8.616;2023-03-14T04:16:24;7.00;;;5.93;;
35715;SDS011;21840;44.920;8.616;2023-03-14T04:18:54;8.27;;;6.15;;
35715;SDS011;21840;44.920;8.616;2023-03-14T04:21:21;8.45;;;6.28;;
35715;SDS011;21840;44.920;8.616;2023-03-14T04:23:51;10.90;;;6.32;;
35715;SDS011;21840;44.920;8.616;2023-03-14T04:26:17;9.13;;;7.53;;
35715;SDS011;21840;44.920;8.616;2023-03-14T04:28:43;10.23;;;7.00;;
35715;SDS011;21840;44.920;8.616;2023-03-14T04:31:10;10.75;;;8.13;;
35715;SDS011;21840;44.920;8.616;2023-03-14T04:33:38;9.65;;;8.02;;
35715;SDS011;21840;44.920;8.616;2023-03-14T04:36:04;14.73;;;8.43;;
35715;SDS011;21840;44.920;8.616;2023-03-14T04:38:31;11.10;;;8.35;;
35715;SDS011;21840;44.920;8.616;2023-03-14T04:40:57;12.45;;;8.68;;
35715;SDS011;21840;44.920;8.616;2023-03-14T04:43:29;13.37;;;8.90;;
35715;SDS011;21840;44.920;8.616;2023-03-14T04:48:26;10.75;;;8.25;;
35715;SDS011;21840;44.920;8.616;2023-03-14T04:50:53;14.57;;;9.55;;
35715;SDS011;21840;44.920;8.616;2023-03-14T04:53:19;12.20;;;8.63;;
35715;SDS011;21840;44.920;8.616;2023-03-14T04:55:54;10.90;;;8.93;;
35715;SDS011;21840;44.920;8.616;2023-03-14T04:58:22;10.57;;;8.65;;
35715;SDS011;21840;44.920;8.616;2023-03-14T05:00:49;10.43;;;8.68;;
35715;SDS011;21840;44.920;8.616;2023-03-14T05:03:36;11.23;;;8.88;;
35715;SDS011;21840;44.920;8.616;2023-03-14T05:06:12;11.80;;;8.88;;
35715;SDS011;21840;44.920;8.616;2023-03-14T05:08:56;10.95;;;9.10;;
35715;SDS011;21840;44.920;8.616;2023-03-14T05:11:39;12.13;;;9.57;;
35715;SDS011;21840;44.920;8.616;2023-03-14T05:14:29;11.70;;;8.77;;
35715;SDS011;21840;44.920;8.616;2023-03-14T05:17:17;10.85;;;8.63;;
35715;SDS011;21840;44.920;8.616;2023-03-14T05:20:02;9.60;;;8.50;;
35715;SDS011;21840;44.920;8.616;2023-03-14T05:22:51;10.30;;;8.15;;
35715;SDS011;21840;44.920;8.616;2023-03-14T05:25:36;14.98;;;9.07;;
35715;SDS011;21840;44.920;8.616;2023-03-14T05:28:23;9.40;;;8.20;;
35715;SDS011;21840;44.920;8.616;2023-03-14T05:31:09;13.30;;;8.18;;
35715;SDS011;21840;44.920;8.616;2023-03-14T05:33:46;9.98;;;8.10;;
35715;SDS011;21840;44.920;8.616;2023-03-14T05:36:32;12.43;;;8.60;;
35715;SDS011;21840;44.920;8.616;2023-03-14T05:39:11;10.70;;;7.57;;
35715;SDS011;21840;44.920;8.616;2023-03-14T05:41:39;9.60;;;7.93;;
35715;SDS011;21840;44.920;8.616;2023-03-14T05:44:23;10.00;;;7.38;;
35715;SDS011;21840;44.920;8.616;2023-03-14T05:46:51;9.65;;;8.10;;
35715;SDS011;21840;44.920;8.616;2023-03-14T05:49:30;15.27;;;8.05;;
35715;SDS011;21840;44.920;8.616;2023-03-14T05:52:18;12.02;;;9.23;;
35715;SDS011;21840;44.920;8.616;2023-03-14T05:54:51;15.52;;;9.55;;
35715;SDS011;21840;44.920;8.616;2023-03-14T05:57:28;10.65;;;8.82;;
35715;SDS011;21840;44.920;8.616;2023-03-14T06:00:11;12.45;;;8.93;;
35715;SDS011;21840;44.920;8.616;2023-03-14T06:02:56;11.05;;;8.98;;
35715;SDS011;21840;44.920;8.616;2023-03-14T06:05:28;11.80;;;9.52;;
35715;SDS011;21840;44.920;8.616;2023-03-14T06:07:58;13.55;;;8.85;;
35715;SDS011;21840;44.920;8.616;2023-03-14T06:10:25;11.43;;;9.90;;
35715;SDS011;21840;44.920;8.616;2023-03-14T06:12:51;10.50;;;9.40;;
35715;SDS011;21840;44.920;8.616;2023-03-14T06:15:16;10.85;;;8.57;;
35715;SDS011;21840;44.920;8.616;2023-03-14T06:17:46;12.60;;;9.75;;
35715;SDS011;21840;44.920;8.616;2023-03-14T06:20:12;12.95;;;9.40;;
35715;SDS011;21840;44.920;8.616;2023-03-14T06:22:39;12.70;;;9.38;;
35715;SDS011;21840;44.920;8.616;2023-03-14T06:25:06;10.68;;;9.38;;
35715;SDS011;21840;44.920;8.616;2023-03-14T06:27:32;11.25;;;9.45;;
35715;SDS011;21840;44.920;8.616;2023-03-14T06:29:58;10.85;;;9.18;;
35715;SDS011;21840;44.920;8.616;2023-03-14T06:32:24;11.88;;;8.95;;
35715;SDS011;21840;44.920;8.616;2023-03-14T06:34:53;11.55;;;9.40;;
35715;SDS011;21840;44.920;8.616;2023-03-14T06:37:19;12.27;;;9.55;;
35715;SDS011;21840;44.920;8.616;2023-03-14T06:39:45;12.60;;;9.60;;
35715;SDS011;21840;44.920;8.616;2023-03-14T06:42:20;15.55;;;10.50;;
35715;SDS011;21840;44.920;8.616;2023-03-14T06:44:46;12.85;;;9.40;;
35715;SDS011;21840;44.920;8.616;2023-03-14T06:47:12;12.90;;;8.82;;
35715;SDS011;21840;44.920;8.616;2023-03-14T06:49:42;15.25;;;9.95;;
35715;SDS011;21840;44.920;8.616;2023-03-14T06:52:08;11.98;;;9.65;;
35715;SDS011;21840;44.920;8.616;2023-03-14T06:54:34;13.23;;;9.85;;
35715;SDS011;21840;44.920;8.616;2023-03-14T06:56:59;12.40;;;10.07;;
35715;SDS011;21840;44.920;8.616;2023-03-14T06:59:25;11.23;;;8.95;;
35715;SDS011;21840;44.920;8.616;2023-03-14T07:01:50;12.00;;;10.07;;
35715;SDS011;21840;44.920;8.616;2023-03-14T07:04:16;12.18;;;10.00;;
35715;SDS011;21840;44.920;8.616;2023-03-14T07:06:46;12.57;;;9.32;;
35715;SDS011;21840;44.920;8.616;2023-03-14T07:09:13;11.10;;;9.30;;
35715;SDS011;21840;44.920;8.616;2023-03-14T07:11:43;10.98;;;9.30;;
35715;SDS011;21840;44.920;8.616;2023-03-14T07:14:09;11.52;;;8.73;;
35715;SDS011;21840;44.920;8.616;2023-03-14T07:16:35;10.20;;;7.75;;
35715;SDS011;21840;44.920;8.616;2023-03-14T07:19:01;9.50;;;7.38;;
35715;SDS011;21840;44.920;8.616;2023-03-14T07:21:27;9.35;;;7.75;;
35715;SDS011;21840;44.920;8.616;2023-03-14T07:23:53;9.27;;;7.85;;
35715;SDS011;21840;44.920;8.616;2023-03-14T07:26:19;9.68;;;8.20;;
35715;SDS011;21840;44.920;8.616;2023-03-14T07:28:49;9.73;;;8.15;;
35715;SDS011;21840;44.920;8.616;2023-03-14T07:31:17;10.60;;;8.38;;
35715;SDS011;21840;44.920;8.616;2023-03-14T07:33:43;8.13;;;6.28;;
35715;SDS011;21840;44.920;8.616;2023-03-14T07:36:09;7.47;;;5.90;;
35715;SDS011;21840;44.920;8.616;2023-03-14T07:38:34;7.85;;;5.78;;
35715;SDS011;21840;44.920;8.616;2023-03-14T07:41:09;5.97;;;5.28;;
35715;SDS011;21840;44.920;8.616;2023-03-14T07:43:42;6.03;;;4.57;;
35715;SDS011;21840;44.920;8.616;2023-03-14T07:46:07;5.55;;;4.32;;
35715;SDS011;21840;44.920;8.616;2023-03-14T07:48:33;5.38;;;4.10;;
35715;SDS011;21840;44.920;8.616;2023-03-14T07:50:59;5.60;;;4.32;;
35715;SDS011;21840;44.920;8.616;2023-03-14T07:53:24;8.60;;;4.80;;
35715;SDS011;21840;44.920;8.616;2023-03-14T07:55:51;6.13;;;4.03;;
35715;SDS011;21840;44.920;8.616;2023-03-14T07:58:17;6.05;;;4.40;;
35715;SDS011;21840;44.920;8.616;2023-03-14T08:00:43;6.50;;;4.40;;
35715;SDS011;21840;44.920;8.616;2023-03-14T08:03:09;7.32;;;3.97;;
35715;SDS011;21840;44.920;8.616;2023-03-14T08:05:35;3.78;;;3.33;;
35715;SDS011;21840;44.920;8.616;2023-03-14T08:08:01;4.13;;;3.70;;
35715;SDS011;21840;44.920;8.616;2023-03-14T08:10:27;5.00;;;3.92;;
35715;SDS011;21840;44.920;8.616;2023-03-14T08:12:54;4.35;;;3.70;;
35715;SDS011;21840;44.920;8.616;2023-03-14T08:15:21;5.97;;;3.90;;
35715;SDS011;21840;44.920;8.616;2023-03-14T08:17:46;6.43;;;3.95;;
35715;SDS011;21840;44.920;8.616;2023-03-14T08:20:18;4.70;;;3.83;;
35715;SDS011;21840;44.920;8.616;2023-03-14T08:22:44;4.55;;;3.40;;
35715;SDS011;21840;44.920;8.616;2023-03-14T08:25:10;3.83;;;3.35;;
35715;SDS011;21840;44.920;8.616;2023-03-14T08:27:46;4.55;;;3.65;;
35715;SDS011;21840;44.920;8.616;2023-03-14T08:30:12;4.40;;;3.15;;
35715;SDS011;21840;44.920;8.616;2023-03-14T08:32:39;7.07;;;3.35;;
35715;SDS011;21840;44.920;8.616;2023-03-14T08:35:05;3.28;;;2.55;;
35715;SDS011;21840;44.920;8.616;2023-03-14T08:37:32;3.13;;;2.58;;
35715;SDS011;21840;44.920;8.616;2023-03-14T08:39:58;2.78;;;2.40;;
35715;SDS011;21840;44.920;8.616;2023-03-14T08:42:23;2.60;;;2.40;;
35715;SDS011;21840;44.920;8.616;2023-03-14T08:44:50;3.22;;;2.75;;
35715;SDS011;21840;44.920;8.616;2023-03-14T08:47:16;2.58;;;2.10;;
35715;SDS011;21840;44.920;8.616;2023-03-14T08:49:42;2.38;;;2.13;;
35715;SDS011;21840;44.920;8.616;2023-03-14T08:52:07;2.92;;;2.45;;
35715;SDS011;21840;44.920;8.616;2023-03-14T08:54:33;3.53;;;2.78;;
35715;SDS011;21840;44.920;8.616;2023-03-14T08:56:58;2.42;;;2.22;;
35715;SDS011;21840;44.920;8.616;2023-03-14T08:59:24;3.60;;;2.40;;
35715;SDS011;21840;44.920;8.616;2023-03-14T09:01:49;3.20;;;2.78;;
35715;SDS011;21840;44.920;8.616;2023-03-14T09:04:15;3.83;;;2.40;;
35715;SDS011;21840;44.920;8.616;2023-03-14T09:06:40;3.40;;;2.83;;
35715;SDS011;21840;44.920;8.616;2023-03-14T09:09:06;2.28;;;2.08;;
35715;SDS011;21840;44.920;8.616;2023-03-14T09:11:31;2.58;;;2.00;;
35715;SDS011;21840;44.920;8.616;2023-03-14T09:13:57;2.63;;;2.03;;
35715;SDS011;21840;44.920;8.616;2023-03-14T09:16:23;4.22;;;2.10;;
35715;SDS011;21840;44.920;8.616;2023-03-14T09:18:49;2.20;;;2.00;;
35715;SDS011;21840;44.920;8.616;2023-03-14T09:21:14;2.13;;;1.90;;
35715;SDS011;21840;44.920;8.616;2023-03-14T09:23:40;2.50;;;2.30;;
35715;SDS011;21840;44.920;8.616;2023-03-14T09:26:06;3.65;;;2.30;;
35715;SDS011;21840;44.920;8.616;2023-03-14T09:28:32;5.03;;;2.40;;
35715;SDS011;21840;44.920;8.616;2023-03-14T09:30:57;4.57;;;3.10;;
35715;SDS011;21840;44.920;8.616;2023-03-14T09:33:23;8.73;;;3.00;;
35715;SDS011;21840;44.920;8.616;2023-03-14T09:35:49;6.10;;;3.08;;
35715;SDS011;21840;44.920;8.616;2023-03-14T09:38:14;2.80;;;2.47;;
35715;SDS011;21840;44.920;8.616;2023-03-14T09:40:41;5.18;;;3.03;;
35715;SDS011;21840;44.920;8.616;2023-03-14T09:43:11;3.42;;;2.70;;
35715;SDS011;21840;44.920;8.616;2023-03-14T09:45:40;3.70;;;2.85;;
35715;SDS011;21840;44.920;8.616;2023-03-14T09:48:11;5.57;;;2.50;;
35715;SDS011;21840;44.920;8.616;2023-03-14T09:50:52;6.63;;;2.70;;
35715;SDS011;21840;44.920;8.616;2023-03-14T09:53:32;6.72;;;3.17;;
35715;SDS011;21840;44.920;8.616;2023-03-14T09:56:16;3.97;;;3.33;;
35715;SDS011;21840;44.920;8.616;2023-03-14T09:58:45;5.53;;;3.70;;
35715;SDS011;21840;44.920;8.616;2023-03-14T10:03:45;3.78;;;3.20;;
35715;SDS011;21840;44.920;8.616;2023-03-14T10:06:12;5.57;;;3.25;;
35715;SDS011;21840;44.920;8.616;2023-03-14T10:08:41;4.28;;;3.25;;
35715;SDS011;21840;44.920;8.616;2023-03-14T10:11:17;4.38;;;3.35;;
35715;SDS011;21840;44.920;8.616;2023-03-14T10:13:47;4.00;;;3.58;;
35715;SDS011;21840;44.920;8.616;2023-03-14T10:16:37;8.07;;;4.25;;
35715;SDS011;21840;44.920;8.616;2023-03-14T10:19:10;6.10;;;3.97;;
35715;SDS011;21840;44.920;8.616;2023-03-14T10:21:41;5.15;;;4.25;;
35715;SDS011;21840;44.920;8.616;2023-03-14T10:24:18;6.10;;;4.18;;
35715;SDS011;21840;44.920;8.616;2023-03-14T10:26:48;5.47;;;4.38;;
35715;SDS011;21840;44.920;8.616;2023-03-14T10:29:17;5.88;;;4.35;;
35715;SDS011;21840;44.920;8.616;2023-03-14T10:31:50;10.90;;;4.68;;
35715;SDS011;21840;44.920;8.616;2023-03-14T10:34:28;6.18;;;4.65;;
35715;SDS011;21840;44.920;8.616;2023-03-14T10:36:58;5.53;;;4.60;;
35715;SDS011;21840;44.920;8.616;2023-03-14T10:39:33;6.53;;;4.30;;
35715;SDS011;21840;44.920;8.616;2023-03-14T10:42:15;8.38;;;4.90;;
35715;SDS011;21840;44.920;8.616;2023-03-14T10:44:45;5.20;;;4.70;;
35715;SDS011;21840;44.920;8.616;2023-03-14T10:47:18;7.35;;;5.57;;
35715;SDS011;21840;44.920;8.616;2023-03-14T10:49:45;6.22;;;5.63;;
35715;SDS011;21840;44.920;8.616;2023-03-14T10:52:22;5.88;;;5.18;;
35715;SDS011;21840;44.920;8.616;2023-03-14T10:55:00;7.15;;;5.80;;
35715;SDS011;21840;44.920;8.616;2023-03-14T10:57:28;6.97;;;5.85;;
35715;SDS011;21840;44.920;8.616;2023-03-14T10:59:55;8.02;;;6.03;;
35715;SDS011;21840;44.920;8.616;2023-03-14T11:05:17;5.90;;;5.10;;
35715;SDS011;21840;44.920;8.616;2023-03-14T11:07:46;7.60;;;5.55;;
35715;SDS011;21840;44.920;8.616;2023-03-14T11:15:37;5.82;;;5.13;;
35715;SDS011;21840;44.920;8.616;2023-03-14T11:26:43;6.38;;;5.60;;
35715;SDS011;21840;44.920;8.616;2023-03-14T11:31:59;7.75;;;6.03;;
35715;SDS011;21840;44.920;8.616;2023-03-14T11:34:32;5.65;;;4.78;;
35715;SDS011;21840;44.920;8.616;2023-03-14T11:37:18;5.93;;;4.95;;
35715;SDS011;21840;44.920;8.616;2023-03-14T11:39:59;5.95;;;5.25;;
35715;SDS011;21840;44.920;8.616;2023-03-14T11:42:31;6.68;;;5.38;;
35715;SDS011;21840;44.920;8.616;2023-03-14T11:44:58;6.78;;;5.38;;
35715;SDS011;21840;44.920;8.616;2023-03-14T11:47:40;6.50;;;5.57;;
35715;SDS011;21840;44.920;8.616;2023-03-14T11:53:04;7.75;;;6.57;;
35715;SDS011;21840;44.920;8.616;2023-03-14T11:55:37;8.52;;;7.10;;
35715;SDS011;21840;44.920;8.616;2023-03-14T11:58:16;8.50;;;7.05;;
35715;SDS011;21840;44.920;8.616;2023-03-14T12:00:46;6.57;;;5.88;;
35715;SDS011;21840;44.920;8.616;2023-03-14T12:08:44;5.97;;;5.05;;
35715;SDS011;21840;44.920;8.616;2023-03-14T12:13:57;6.25;;;5.57;;
35715;SDS011;21840;44.920;8.616;2023-03-14T12:18:49;9.13;;;5.65;;
35715;SDS011;21840;44.920;8.616;2023-03-14T12:21:16;7.43;;;5.22;;
35715;SDS011;21840;44.920;8.616;2023-03-14T12:23:44;5.50;;;4.65;;
35715;SDS011;21840;44.920;8.616;2023-03-14T12:28:43;6.20;;;4.93;;
35715;SDS011;21840;44.920;8.616;2023-03-14T12:34:41;5.10;;;4.40;;
35715;SDS011;21840;44.920;8.616;2023-03-14T12:39:16;6.35;;;5.05;;
35715;SDS011;21840;44.920;8.616;2023-03-14T12:44:38;21.70;;;5.35;;
35715;SDS011;21840;44.920;8.616;2023-03-14T12:47:26;7.82;;;4.88;;
35715;SDS011;21840;44.920;8.616;2023-03-14T12:49:54;8.77;;;4.53;;
35715;SDS011;21840;44.920;8.616;2023-03-14T12:52:31;16.33;;;5.40;;
35715;SDS011;21840;44.920;8.616;2023-03-14T12:55:21;8.13;;;4.80;;
35715;SDS011;21840;44.920;8.616;2023-03-14T12:57:55;4.77;;;4.27;;
35715;SDS011;21840;44.920;8.616;2023-03-14T13:00:31;5.20;;;4.70;;
35715;SDS011;21840;44.920;8.616;2023-03-14T13:03:00;6.60;;;5.60;;
35715;SDS011;21840;44.920;8.616;2023-03-14T13:05:40;8.02;;;5.60;;
35715;SDS011;21840;44.920;8.616;2023-03-14T13:08:32;11.20;;;6.53;;
35715;SDS011;21840;44.920;8.616;2023-03-14T13:11:06;9.25;;;6.60;;
35715;SDS011;21840;44.920;8.616;2023-03-14T13:13:35;7.00;;;6.30;;
35715;SDS011;21840;44.920;8.616;2023-03-14T13:16:05;8.25;;;6.43;;
35715;SDS011;21840;44.920;8.616;2023-03-14T13:18:39;8.73;;;6.13;;
35715;SDS011;21840;44.920;8.616;2023-03-14T13:21:16;8.40;;;6.72;;
35715;SDS011;21840;44.920;8.616;2023-03-14T13:24:01;6.88;;;6.18;;
35715;SDS011;21840;44.920;8.616;2023-03-14T13:26:36;7.65;;;6.28;;
35715;SDS011;21840;44.920;8.616;2023-03-14T13:29:15;11.73;;;7.25;;
35715;SDS011;21840;44.920;8.616;2023-03-14T13:31:46;14.27;;;7.13;;
35715;SDS011;21840;44.920;8.616;2023-03-14T13:34:12;9.07;;;6.88;;
35715;SDS011;21840;44.920;8.616;2023-03-14T13:36:38;8.15;;;6.05;;
35715;SDS011;21840;44.920;8.616;2023-03-14T13:39:04;9.05;;;7.00;;
35715;SDS011;21840;44.920;8.616;2023-03-14T13:41:45;11.93;;;7.10;;
35715;SDS011;21840;44.920;8.616;2023-03-14T13:44:26;7.95;;;5.75;;
35715;SDS011;21840;44.920;8.616;2023-03-14T13:46:58;10.10;;;6.70;;
35715;SDS011;21840;44.920;8.616;2023-03-14T13:49:26;7.82;;;6.25;;
35715;SDS011;21840;44.920;8.616;2023-03-14T13:51:56;7.03;;;6.13;;
35715;SDS011;21840;44.920;8.616;2023-03-14T13:54:22;9.07;;;6.55;;
35715;SDS011;21840;44.920;8.616;2023-03-14T13:56:48;9.65;;;7.38;;
35715;SDS011;21840;44.920;8.616;2023-03-14T13:59:25;8.02;;;6.75;;
35715;SDS011;21840;44.920;8.616;2023-03-14T14:01:53;10.43;;;7.38;;
35715;SDS011;21840;44.920;8.616;2023-03-14T14:04:23;10.52;;;6.97;;
35715;SDS011;21840;44.920;8.616;2023-03-14T14:06:55;11.32;;;7.55;;
35715;SDS011;21840;44.920;8.616;2023-03-14T14:09:24;11.05;;;7.40;;
35715;SDS011;21840;44.920;8.616;2023-03-14T14:12:11;10.38;;;8.20;;
35715;SDS011;21840;44.920;8.616;2023-03-14T14:17:58;10.73;;;7.75;;
35715;SDS011;21840;44.920;8.616;2023-03-14T14:20:34;15.93;;;7.07;;
35715;SDS011;21840;44.920;8.616;2023-03-14T14:23:03;11.60;;;7.47;;
35715;SDS011;21840;44.920;8.616;2023-03-14T14:25:31;10.13;;;7.05;;
35715;SDS011;21840;44.920;8.616;2023-03-14T14:27:57;10.30;;;7.10;;
35715;SDS011;21840;44.920;8.616;2023-03-14T14:32:54;23.02;;;8.50;;
35715;SDS011;21840;44.920;8.616;2023-03-14T14:35:37;14.13;;;7.43;;
35715;SDS011;21840;44.920;8.616;2023-03-14T14:38:03;25.83;;;8.40;;
35715;SDS011;21840;44.920;8.616;2023-03-14T14:40:42;9.40;;;7.43;;
35715;SDS011;21840;44.920;8.616;2023-03-14T14:43:11;15.23;;;7.35;;
35715;SDS011;21840;44.920;8.616;2023-03-14T14:45:42;8.45;;;7.28;;
35715;SDS011;21840;44.920;8.616;2023-03-14T14:48:21;15.15;;;7.55;;
35715;SDS011;21840;44.920;8.616;2023-03-14T14:50:49;9.13;;;7.65;;
35715;SDS011;21840;44.920;8.616;2023-03-14T14:53:22;13.55;;;7.65;;
35715;SDS011;21840;44.920;8.616;2023-03-14T14:55:53;11.43;;;7.88;;
35715;SDS011;21840;44.920;8.616;2023-03-14T14:58:28;26.02;;;8.38;;
35715;SDS011;21840;44.920;8.616;2023-03-14T15:00:59;12.63;;;7.32;;
35715;SDS011;21840;44.920;8.616;2023-03-14T15:03:31;20.33;;;7.88;;
35715;SDS011;21840;44.920;8.616;2023-03-14T15:05:58;13.10;;;7.63;;
35715;SDS011;21840;44.920;8.616;2023-03-14T15:08:24;11.48;;;8.15;;
35715;SDS011;21840;44.920;8.616;2023-03-14T15:10:51;15.98;;;8.38;;
35715;SDS011;21840;44.920;8.616;2023-03-14T15:13:17;10.35;;;8.43;;
35715;SDS011;21840;44.920;8.616;2023-03-14T15:15:42;13.02;;;7.32;;
35715;SDS011;21840;44.920;8.616;2023-03-14T15:18:12;8.55;;;6.68;;
35715;SDS011;21840;44.920;8.616;2023-03-14T15:20:40;9.65;;;7.63;;
35715;SDS011;21840;44.920;8.616;2023-03-14T15:23:10;18.73;;;8.25;;
35715;SDS011;21840;44.920;8.616;2023-03-14T15:25:37;18.67;;;7.50;;
35715;SDS011;21840;44.920;8.616;2023-03-14T15:28:37;11.80;;;7.78;;
35715;SDS011;21840;44.920;8.616;2023-03-14T15:30:56;12.18;;;7.78;;
35715;SDS011;21840;44.920;8.616;2023-03-14T15:33:23;10.55;;;7.47;;
35715;SDS011;21840;44.920;8.616;2023-03-14T15:35:51;12.00;;;7.95;;
35715;SDS011;21840;44.920;8.616;2023-03-14T15:38:18;9.02;;;7.10;;
35715;SDS011;21840;44.920;8.616;2023-03-14T15:40:47;10.25;;;6.70;;
35715;SDS011;21840;44.920;8.616;2023-03-14T15:43:13;11.25;;;6.55;;
35715;SDS011;21840;44.920;8.616;2023-03-14T15:45:38;10.93;;;7.05;;
35715;SDS011;21840;44.920;8.616;2023-03-14T15:48:06;10.30;;;7.00;;
35715;SDS011;21840;44.920;8.616;2023-03-14T15:50:37;12.00;;;7.18;;
35715;SDS011;21840;44.920;8.616;2023-03-14T15:53:02;11.38;;;6.50;;
35715;SDS011;21840;44.920;8.616;2023-03-14T15:55:28;11.45;;;7.07;;